M I D A S
Marine Information and Data Acquisition System
Tripno 529 of the Zeeleeuw from 2003-07-02 06:09:36 to 2003-07-02 13:08:40
Back to CruiseResearch ActivitiesStationsMapUnderway DataData graphs

EquipmentUnitsComment
TimeDGPSUTC
LatitudeDGPSDM.mWGS84
LongitudeDGPSDM.mWGS84
TemperatureSBE03/SBE38deg celciusITS90
ConductivitySBE21S/mITS90
SalinitySBE21 Practical Salinity Units
ChlorophylAChelsea fluorimeterg/lCalibrated in Aceton
Missing or incorrect values are displayed as -999
Sea surface data collected by the RV Zeeleeuw from 2003-07-02 06:09:36 to 2003-07-02 13:08:40
Time Latitude Longitude Temperature Conductivity Salinity ChlorophylA
2003-07-02 06:10:38 51°13.66 2°55.85 22.505926 2.352531 15.317133 -0.71383
2003-07-02 06:11:36 51°13.69 2°55.74 22.511472 2.349062 15.292677 -0.74754
2003-07-02 06:12:34 51°13.7 2°55.74 22.513542 2.346855 15.277204 -0.71383
2003-07-02 06:13:32 51°13.74 2°55.72 22.51983 2.345279 15.264772 -0.71383
2003-07-02 06:14:32 51°13.85 2°55.62 22.528734 2.350113 15.301857 -0.71383
2003-07-02 06:15:34 51°13.99 2°55.52 37.626028 2.348222 15.289353 -0.74754
2003-07-02 06:16:34 51°14.12 2°55.42 36.313992 2.348642 15.292831 -0.74754
2003-07-02 06:17:32 51°14.24 2°55.29 36.95201 2.345804 15.273106 -0.74754
2003-07-02 06:18:34 51°14.34 2°55.1 35.225053 2.347591 15.28583 -0.71383
2003-07-02 06:19:34 51°14.42 2°54.88 35.255683 2.327728 15.146118 -0.74754
2003-07-02 06:20:34 51°14.41 2°54.6 36.968884 2.34633 15.2783 -0.71383
2003-07-02 06:21:34 51°14.34 2°54.3 35.135335 2.342652 15.252346 -0.781249
2003-07-02 06:22:32 51°14.24 2°54.01 34.330703 2.34675 15.282262 -0.781249
2003-07-02 06:23:34 51°14.13 2°53.71 33.680168 2.353056 15.328155 -0.74754
2003-07-02 06:24:34 51°14.02 2°53.41 34.362885 2.341075 15.244018 -0.74754
2003-07-02 06:25:34 51°13.91 2°53.08 19.915381 4.184884 28.211592 5.960631
2003-07-02 06:26:34 51°13.79 2°52.76 19.524308 4.59072 33.421646 4.848221
2003-07-02 06:27:34 51°13.68 2°52.43 19.570614 4.612142 33.816545 4.747093
2003-07-02 06:28:34 51°13.56 2°52.11 19.56243 4.62892 34.012047 4.713383
2003-07-02 06:29:34 51°13.45 2°51.78 19.413611 4.628182 34.040086 4.780802
2003-07-02 06:30:32 51°13.34 2°51.46 19.428788 4.621641 34.000637 4.88193
2003-07-02 06:31:34 51°13.22 2°51.12 19.603706 4.626811 34.064705 4.814512
2003-07-02 06:32:34 51°13.11 2°50.79 19.268686 4.626284 34.078344 4.88193
2003-07-02 06:33:34 51°12.99 2°50.47 19.569271 4.624912 34.072248 4.780802
2003-07-02 06:34:34 51°12.88 2°50.14 19.354378 4.62027 34.037989 4.713383
2003-07-02 06:35:34 51°12.76 2°49.81 19.367976 4.629028 34.114359 4.713383
2003-07-02 06:36:34 51°12.65 2°49.48 19.503038 4.601384 33.90642 4.645965
2003-07-02 06:37:34 51°12.53 2°49.16 19.321822 4.622275 34.077192 4.679674
2003-07-02 06:38:34 51°12.42 2°48.83 19.350212 4.62829 34.148435 4.34258
2003-07-02 06:39:34 51°12.31 2°48.5 19.305109 4.634937 34.196978 4.34258
2003-07-02 06:40:34 51°12.2 2°48.17 19.428666 4.62523 34.129547 4.477418
2003-07-02 06:41:34 51°12.08 2°47.84 19.251797 4.640213 34.258148 4.645965
2003-07-02 06:42:34 51°11.98 2°47.51 19.407571 4.641269 34.280933 4.949349
2003-07-02 06:43:34 51°11.88 2°47.16 19.29346 4.636626 34.247186 5.353862
2003-07-02 06:44:34 51°11.79 2°46.82 19.245989 4.638737 34.280476 5.4887
2003-07-02 06:45:34 51°11.69 2°46.48 19.08108 4.638315 34.286362 5.45499
2003-07-02 06:46:34 51°11.58 2°46.14 19.317818 4.635255 34.287997 5.387571
2003-07-02 06:47:34 51°11.47 2°45.81 19.11547 4.62903 34.266907 5.353862
2003-07-02 06:48:34 51°11.36 2°45.47 19.080875 4.629136 34.29718 5.252734
2003-07-02 06:49:34 51°11.25 2°45.14 19.010198 4.623756 34.285451 5.4887
2003-07-02 06:50:34 51°11.14 2°44.81 18.997105 4.623123 34.29433 5.657247
2003-07-02 06:51:34 51°11.03 2°44.47 19.107028 4.620063 34.283037 5.926922
2003-07-02 06:52:34 51°10.93 2°44.14 19.092846 4.617742 34.2826 6.230306
2003-07-02 06:53:34 51°10.82 2°43.8 19.111044 4.615316 34.274796 6.668529
2003-07-02 06:54:34 51°10.71 2°43.47 18.976331 4.607614 34.230153 6.938204
2003-07-02 06:55:34 51°10.6 2°43.14 18.993862 4.605082 34.235024 7.74723
2003-07-02 06:56:34 51°10.5 2°42.8 18.778056 4.593898 34.186089 8.084324
2003-07-02 06:57:34 51°10.39 2°42.47 18.62417 4.592845 34.257165 8.522546
2003-07-02 06:58:32 51°10.3 2°42.14 18.644141 4.586515 34.260038 8.488836
2003-07-02 06:59:34 51°10.2 2°41.79 18.637045 4.583245 34.260605 8.556255
2003-07-02 07:00:34 51°10.1 2°41.45 18.500709 4.578392 34.272941 8.219161
2003-07-02 07:01:34 51°10 2°41.11 18.541419 4.563623 34.228909 8.118033
2003-07-02 07:02:32 51°9.91 2°40.78 18.542741 4.565522 34.264594 8.118033
2003-07-02 07:03:34 51°9.81 2°40.43 18.399803 4.558876 34.253571 8.219161
2003-07-02 07:04:34 51°9.71 2°40.09 18.556168 4.557505 34.248615 8.28658
2003-07-02 07:05:34 51°9.62 2°39.74 18.610179 4.552124 34.220082 8.657383
2003-07-02 07:06:34 51°9.53 2°39.4 18.314629 4.555501 34.291724 9.028187
2003-07-02 07:07:34 51°9.44 2°39.05 18.231799 4.549488 34.278871 9.297862
2003-07-02 07:08:34 51°9.35 2°38.7 18.336181 4.547483 34.267366 10.376563
2003-07-02 07:09:34 51°9.27 2°38.35 18.538485 4.546956 34.262913 11.050751
2003-07-02 07:10:34 51°9.2 2°37.99 18.429193 4.545162 34.252584 11.219298
2003-07-02 07:11:34 51°9.13 2°37.63 18.224245 4.552231 34.317081 11.219298
2003-07-02 07:12:34 51°9.1 2°37.34 18.485039 4.550649 34.308536 11.08446
2003-07-02 07:13:34 51°9.09 2°37.22 18.363153 4.550755 34.320276 10.814785
2003-07-02 07:14:36 51°9.08 2°37.21 18.188042 4.54875 34.321432 10.275435
2003-07-02 07:15:38 51°9.07 2°37.21 18.495004 4.54548 34.291981 10.443982
2003-07-02 07:16:34 51°9.06 2°37.21 18.254165 4.546535 34.308134 10.983332
2003-07-02 07:17:34 51°9.04 2°37.21 18.351098 4.546851 34.307793 10.410272
2003-07-02 07:18:34 51°9.04 2°37.2 18.246282 4.547379 34.316475 9.230443
2003-07-02 07:19:34 51°9.03 2°37.2 18.257774 4.547273 34.317393 8.893349
2003-07-02 07:20:34 51°9.04 2°37.2 18.194728 4.547695 34.311911 7.74723
2003-07-02 07:21:34 51°9.05 2°37.19 18.225449 4.54759 34.312829 7.915777
2003-07-02 07:22:34 51°9.07 2°37.18 18.117158 4.550016 34.330926 8.219161
2003-07-02 07:23:34 51°9.08 2°37.18 18.117616 4.548328 34.317865 8.387708
2003-07-02 07:24:34 51°9.1 2°37.17 18.122022 4.5497 34.327044 8.522546
2003-07-02 07:25:34 51°9.11 2°37.16 18.127675 4.54875 34.319622 8.792221
2003-07-02 07:26:34 51°9.11 2°37.15 18.152069 4.54875 34.308164 8.28658
2003-07-02 07:27:34 51°9.11 2°37.15 18.163411 4.554447 34.333983 7.882067
2003-07-02 07:28:34 51°9.11 2°37.14 18.176621 4.55086 34.300079 7.14046
2003-07-02 07:29:34 51°9.1 2°37.14 18.172633 4.551176 34.296128 6.196597
2003-07-02 07:30:34 51°9.1 2°37.14 18.181189 4.55202 34.300243 5.556118
2003-07-02 07:31:34 51°9.1 2°37.13 18.176039 4.551493 34.301208 5.387571
2003-07-02 07:32:34 51°9.09 2°37.13 18.184346 4.554974 34.314341 5.4887
2003-07-02 07:33:34 51°9.09 2°37.12 18.181895 4.555713 34.316962 5.758375
2003-07-02 07:34:34 51°9.09 2°37.12 18.153482 4.557506 34.336313 5.724665
2003-07-02 07:35:34 51°9.1 2°37.12 18.149161 4.549594 34.298422 7.17417
2003-07-02 07:36:34 51°9.11 2°37.12 18.151529 4.551704 34.315639 7.848358
2003-07-02 07:37:34 51°9.12 2°37.11 18.154396 4.55086 34.306704 7.511264
2003-07-02 07:38:34 51°9.13 2°37.11 18.158924 4.551387 34.306339 7.376426
2003-07-02 07:39:34 51°9.14 2°37.12 18.160337 4.554763 34.330629 8.252871
2003-07-02 07:40:34 51°9.15 2°37.12 18.161749 4.552653 34.315825 7.915777
2003-07-02 07:41:34 51°9.16 2°37.12 18.161708 4.551704 34.301786 6.904494
2003-07-02 07:42:34 51°9.17 2°37.13 18.163702 4.548433 34.27899 7.073042
2003-07-02 07:43:34 51°9.18 2°37.13 18.164408 4.553497 34.319939 7.342717
2003-07-02 07:44:34 51°9.19 2°37.14 18.16553 4.550227 34.292326 7.376426
2003-07-02 07:45:34 51°9.25 2°37.1 18.176164 4.551176 34.292517 5.926922
2003-07-02 07:46:34 51°9.25 2°36.89 18.198921 4.54991 34.275216 6.803366
2003-07-02 07:47:34 51°9.24 2°36.6 18.2252 4.554446 34.293046 8.657383
2003-07-02 07:48:34 51°9.24 2°36.3 18.264868 4.557822 34.298074 9.533828
2003-07-02 07:49:34 51°9.23 2°35.99 18.302773 4.56373 34.314826 9.668665
2003-07-02 07:50:34 51°9.22 2°35.68 18.319064 4.56795 34.319152 10.106888
2003-07-02 07:51:34 51°9.21 2°35.38 18.310732 4.561936 34.263749 10.848494
2003-07-02 07:52:34 51°9.2 2°35.07 18.336637 4.560036 34.248369 10.54511
2003-07-02 07:53:34 51°9.19 2°34.77 18.423936 4.568265 34.266123 11.69123
2003-07-02 07:54:34 51°9.17 2°34.46 18.443882 4.57871 34.309624 9.500118
2003-07-02 07:55:34 51°9.16 2°34.16 18.365017 4.576178 34.311079 8.151742
2003-07-02 07:56:34 51°9.15 2°33.85 18.319147 4.570797 34.301166 7.073042
2003-07-02 07:57:34 51°9.13 2°33.54 18.323251 4.569849 34.329137 6.971913
2003-07-02 07:58:34 51°9.12 2°33.23 18.172633 4.569427 34.330385 8.320289
2003-07-02 07:59:34 51°9.1 2°32.96 18.062139 4.55086 34.327198 7.477554
2003-07-02 08:00:34 51°9.09 2°32.75 17.982213 4.540944 34.30068 7.309007
2003-07-02 08:01:34 51°9.11 2°32.66 17.904615 4.534931 34.33021 6.634819
2003-07-02 08:02:34 51°9.11 2°32.65 17.8803 4.52818 34.323266 7.275298
2003-07-02 08:03:34 51°9.1 2°32.64 17.87617 4.525648 34.323018 7.511264
2003-07-02 08:04:34 51°9.08 2°32.64 17.891437 4.525015 34.316426 6.499982
2003-07-02 08:05:34 51°9.07 2°32.63 17.919082 4.53029 34.325397 6.196597
2003-07-02 08:06:34 51°9.06 2°32.63 17.935798 4.529868 34.316963 6.60111
2003-07-02 08:07:34 51°9.05 2°32.62 17.916706 4.532083 34.328483 6.264016
2003-07-02 08:08:34 51°9.05 2°32.62 17.899235 4.530923 34.325916 6.331435
2003-07-02 08:09:34 51°9.05 2°32.62 17.913496 4.528074 34.315695 6.264016
2003-07-02 08:10:34 51°9.04 2°32.61 17.917248 4.529024 34.315867 7.073042
2003-07-02 08:11:34 51°9.04 2°32.61 17.915205 4.528496 34.308964 7.511264
2003-07-02 08:12:34 51°9.05 2°32.61 17.967134 4.53145 34.330392 7.342717
2003-07-02 08:13:34 51°9.05 2°32.6 17.94255 4.533349 34.338011 6.803366
2003-07-02 08:14:34 51°9.06 2°32.6 17.940591 4.532294 34.315722 6.129178
2003-07-02 08:15:34 51°9.06 2°32.6 17.944967 4.531872 34.315173 5.252734
2003-07-02 08:16:34 51°9.07 2°32.6 17.9468 4.528179 34.28507 4.983059
2003-07-02 08:17:34 51°9.07 2°32.6 17.951593 4.533349 34.328913 4.983059
2003-07-02 08:18:34 51°9.07 2°32.6 17.953343 4.533243 34.322562 4.713383
2003-07-02 08:19:34 51°9.08 2°32.6 17.954343 4.533138 34.321062 4.174033
2003-07-02 08:20:34 51°9.08 2°32.6 17.971883 4.531661 34.297635 3.735811
2003-07-02 08:21:34 51°9.08 2°32.61 17.982588 4.53472 34.313881 3.76952
2003-07-02 08:22:34 51°9.09 2°32.62 17.986628 4.535459 34.315902 4.34258
2003-07-02 08:23:34 51°9.09 2°32.63 17.992959 4.537674 34.324384 4.747093
2003-07-02 08:24:34 51°9.09 2°32.66 18.004244 4.538096 34.320696 4.174033
2003-07-02 08:25:34 51°9.09 2°32.69 18.028973 4.538729 34.313352 3.836939
2003-07-02 08:26:34 51°9.08 2°32.72 18.050821 4.541893 34.322614 3.80323
2003-07-02 08:27:34 51°9.05 2°32.76 18.073703 4.544003 34.324152 4.106614
2003-07-02 08:28:34 51°9.02 2°32.79 18.097659 4.54664 34.31687 5.556118
2003-07-02 08:29:34 51°8.96 2°32.82 18.128049 4.550016 34.330322 5.657247
2003-07-02 08:30:34 51°8.87 2°32.78 18.151944 4.553814 34.334666 4.207742
2003-07-02 08:31:34 51°8.79 2°32.7 18.178199 4.550121 34.291436 4.207742
2003-07-02 08:32:34 51°8.7 2°32.62 18.209426 4.5593 34.343619 4.477418
2003-07-02 08:33:34 51°8.62 2°32.55 18.231425 4.555607 34.291412 4.443708
2003-07-02 08:34:34 51°8.56 2°32.48 18.218309 4.559088 34.312955 5.421281
2003-07-02 08:35:34 51°8.49 2°32.42 18.215736 4.559194 34.315648 4.983059
2003-07-02 08:36:34 51°8.45 2°32.36 18.199835 4.556873 34.300886 4.511127
2003-07-02 08:37:34 51°8.43 2°32.35 18.205482 4.559405 34.325848 6.365144
2003-07-02 08:38:34 51°8.39 2°32.25 18.218849 4.5574 34.299323 6.5674
2003-07-02 08:39:34 51°8.43 2°32.19 18.199378 4.559194 34.315047 4.477418
2003-07-02 08:40:34 51°8.46 2°32.28 18.195309 4.556134 34.306081 3.836939
2003-07-02 08:41:34 51°8.49 2°32.32 18.195267 4.557084 34.319506 3.702101
2003-07-02 08:42:34 51°8.5 2°32.33 18.212166 4.558666 34.328043 4.174033
2003-07-02 08:43:34 51°8.5 2°32.32 18.224536 4.557189 34.292738 4.376289
2003-07-02 08:44:34 51°8.5 2°32.31 18.22715 4.561093 34.320236 4.477418
2003-07-02 08:45:34 51°8.49 2°32.3 18.232338 4.559405 34.309612 4.848221
2003-07-02 08:46:34 51°8.48 2°32.29 18.262089 4.561092 34.314226 4.679674
2003-07-02 08:47:34 51°8.47 2°32.27 18.288426 4.565629 34.324217 4.207742
2003-07-02 08:48:34 51°8.46 2°32.27 18.244414 4.560987 34.298322 5.320153
2003-07-02 08:49:34 51°8.46 2°32.26 18.249891 4.559721 34.303267 5.859503
2003-07-02 08:50:34 51°8.47 2°32.25 18.249891 4.561937 34.322542 5.4887
2003-07-02 08:51:34 51°8.48 2°32.23 18.249808 4.562464 34.320978 5.792084
2003-07-02 08:52:34 51°8.49 2°32.21 18.246448 4.561092 34.306416 5.353862
2003-07-02 08:53:34 51°8.51 2°32.2 18.226569 4.559932 34.304445 4.814512
2003-07-02 08:54:34 51°8.52 2°32.22 18.216898 4.560249 34.31252 4.578546
2003-07-02 08:55:34 51°8.52 2°32.27 18.2208 4.559088 34.317164 4.780802
2003-07-02 08:56:34 51°8.51 2°32.31 18.235243 4.560565 34.320598 4.544836
2003-07-02 08:57:34 51°8.5 2°32.32 18.269182 4.562886 34.32814 4.91564
2003-07-02 08:58:34 51°8.49 2°32.32 18.286975 4.563624 34.311535 5.219024
2003-07-02 08:59:34 51°8.48 2°32.32 18.282164 4.563097 34.296291 5.4887
2003-07-02 09:00:34 51°8.47 2°32.32 18.291246 4.566895 34.325272 5.893212
2003-07-02 09:01:34 51°8.47 2°32.31 18.295849 4.568266 34.325416 6.499982
2003-07-02 09:02:34 51°8.46 2°32.3 18.303353 4.567633 34.323088 6.668529
2003-07-02 09:03:34 51°8.45 2°32.3 18.304016 4.568899 34.331346 6.971913
2003-07-02 09:04:34 51°8.44 2°32.29 18.311603 4.566894 34.312071 7.612392
2003-07-02 09:05:34 51°8.43 2°32.28 18.305467 4.568477 34.317594 6.702238
2003-07-02 09:06:34 51°8.42 2°32.28 18.317697 4.567 34.315359 6.938204
2003-07-02 09:07:34 51°8.41 2°32.27 18.327022 4.570587 34.320958 6.837076
2003-07-02 09:08:34 51°8.4 2°32.26 18.326401 4.567105 34.293467 6.162888
2003-07-02 09:09:34 51°8.39 2°32.25 18.333114 4.569426 34.313593 7.679811
2003-07-02 09:10:34 51°8.37 2°32.25 18.339165 4.572275 34.330363 7.780939
2003-07-02 09:11:34 51°8.36 2°32.24 18.341734 4.569321 34.304915 8.691093
2003-07-02 09:12:34 51°8.35 2°32.24 18.348446 4.567949 34.286793 9.061896
2003-07-02 09:13:34 51°8.33 2°32.24 18.358058 4.574068 34.334059 9.028187
2003-07-02 09:14:34 51°8.33 2°32.27 18.368952 4.569637 34.29081 8.927059
2003-07-02 09:15:34 51°8.37 2°32.3 18.371313 4.57354 34.311654 8.050614
2003-07-02 09:16:34 51°8.45 2°32.32 18.327976 4.570797 34.295779 5.286443
2003-07-02 09:17:34 51°8.48 2°32.34 18.273579 4.565523 34.294532 3.870648
2003-07-02 09:18:34 51°8.49 2°32.33 18.255907 4.564785 34.316507 4.140324
2003-07-02 09:19:34 51°8.49 2°32.32 18.2252 4.561936 34.317133 4.645965
2003-07-02 09:20:34 51°8.49 2°32.31 18.212581 4.560143 34.322452 4.645965
2003-07-02 09:21:34 51°8.48 2°32.29 18.211377 4.560038 34.322163 5.556118
2003-07-02 09:22:34 51°8.47 2°32.28 18.206353 4.558877 34.31779 5.893212
2003-07-02 09:23:34 51°8.47 2°32.28 18.202534 4.556978 34.309592 5.960631
2003-07-02 09:24:34 51°8.46 2°32.28 18.1978 4.558877 34.326212 5.994341
2003-07-02 09:25:34 51°8.44 2°32.28 18.206727 4.558667 34.331654 6.365144
2003-07-02 09:26:34 51°8.42 2°32.29 18.221298 4.556134 34.296461 5.724665
2003-07-02 09:27:34 51°8.4 2°32.31 18.245078 4.559299 34.310526 5.657247
2003-07-02 09:28:34 51°8.37 2°32.31 18.281708 4.564574 34.326741 6.735947
2003-07-02 09:29:34 51°8.33 2°32.32 18.332037 4.564151 34.298576 7.309007
2003-07-02 09:30:34 51°8.3 2°32.34 18.366177 4.570376 34.310194 7.376426
2003-07-02 09:31:34 51°8.28 2°32.39 18.392972 4.574912 34.321985 8.85964
2003-07-02 09:32:34 51°8.24 2°32.55 18.432876 4.574595 34.291807 7.511264
2003-07-02 09:33:34 51°8.14 2°32.73 18.374088 4.577127 34.287976 8.691093
2003-07-02 09:34:34 51°8.1 2°32.84 18.333943 4.566894 34.262368 7.814648
2003-07-02 09:35:34 51°8.11 2°32.91 18.330918 4.567105 34.28628 8.792221
2003-07-02 09:36:34 51°8.11 2°32.94 18.330255 4.569321 34.304915 8.219161
2003-07-02 09:37:34 51°8.11 2°32.95 18.332742 4.566577 34.282442 10.747366
2003-07-02 09:38:34 51°8.11 2°32.96 18.331084 4.566683 34.277942 11.859777
2003-07-02 09:39:34 51°8.11 2°32.96 18.329219 4.568793 34.30587 11.927195
2003-07-02 09:40:34 51°8.1 2°32.95 18.332203 4.567316 34.289851 11.792358
2003-07-02 09:41:34 51°8.1 2°32.94 18.329882 4.565523 34.280155 11.792358
2003-07-02 09:42:34 51°8.09 2°32.94 18.330089 4.567633 34.296107 11.893486
2003-07-02 09:43:34 51°8.08 2°32.93 18.330255 4.565523 34.283149 11.320426
2003-07-02 09:44:34 51°8.07 2°32.92 18.332203 4.571536 34.324151 11.253007
2003-07-02 09:45:34 51°8.07 2°32.91 18.331125 4.567527 34.294621 9.500118
2003-07-02 09:46:34 51°8.06 2°32.9 18.335642 4.567738 34.290406 7.477554
2003-07-02 09:47:34 51°8.05 2°32.88 18.338502 4.567844 34.289497 8.792221
2003-07-02 09:48:34 51°8.04 2°32.87 18.340242 4.56605 34.275611 9.567537
2003-07-02 09:49:34 51°8.03 2°32.86 18.33614 4.565417 34.276273 11.08446
2003-07-02 09:50:34 51°8.02 2°32.85 18.336554 4.569004 34.298659 11.017042
2003-07-02 09:51:34 51°8.01 2°32.84 18.340988 4.567632 34.285927 9.938341
2003-07-02 09:52:34 51°8 2°32.83 18.340698 4.567949 34.289786 8.522546
2003-07-02 09:53:34 51°7.99 2°32.82 18.339579 4.568898 34.292981 7.949486
2003-07-02 09:54:34 51°7.97 2°32.81 18.342024 4.569426 34.294423 7.983195
2003-07-02 09:55:34 51°7.96 2°32.8 18.335974 4.565417 34.267894 8.657383
2003-07-02 09:56:34 51°7.95 2°32.79 18.358555 4.569743 34.302474 9.601247
2003-07-02 09:57:34 51°7.94 2°32.78 18.322339 4.563623 34.270167 11.219298
2003-07-02 09:58:34 51°7.94 2°32.78 18.32267 4.565417 34.281063 11.893486
2003-07-02 09:59:34 51°7.93 2°32.79 18.32267 4.568477 34.306203 11.826067
2003-07-02 10:00:34 51°7.92 2°32.8 18.321924 4.56605 34.286988 11.758648
2003-07-02 10:01:34 51°7.91 2°32.82 18.31952 4.565206 34.288873 11.758648
2003-07-02 10:02:34 51°7.9 2°32.84 18.315831 4.568055 34.304451 11.994614
2003-07-02 10:03:34 51°7.88 2°32.87 18.313137 4.563413 34.269589 11.017042
2003-07-02 10:04:34 51°7.85 2°32.89 18.306794 4.568266 34.306825 9.736084
2003-07-02 10:05:32 51°7.82 2°32.9 18.293361 4.56605 34.303168 10.443982
2003-07-02 10:06:34 51°7.76 2°32.9 18.270717 4.564996 34.305682 10.983332
2003-07-02 10:07:34 51°7.71 2°32.83 18.25014 4.563519 34.310647 10.781076
2003-07-02 10:08:34 51°7.7 2°32.72 18.24819 4.56067 34.297456 10.882204
2003-07-02 10:09:34 51°7.71 2°32.59 18.272915 4.560354 34.291789 11.08446
2003-07-02 10:10:34 51°7.73 2°32.44 18.299829 4.562463 34.291561 12.028324
2003-07-02 10:11:34 51°7.75 2°32.29 18.321137 4.559931 34.240899 12.297999
2003-07-02 10:12:34 51°7.77 2°32.14 18.327768 4.566156 34.292069 12.76993
2003-07-02 10:13:34 51°7.79 2°31.99 18.32553 4.557504 34.212718 12.331708
2003-07-02 10:14:34 51°7.8 2°31.87 18.332493 4.558559 34.220394 11.488973
2003-07-02 10:15:34 51°7.8 2°31.77 18.353252 4.564784 34.262571 11.11817
2003-07-02 10:16:34 51°7.79 2°31.69 18.388169 4.565417 34.252943 11.320426
2003-07-02 10:17:34 51°7.78 2°31.62 18.409574 4.571852 34.278927 11.994614
2003-07-02 10:18:34 51°7.77 2°31.56 18.427165 4.57565 34.296484 11.893486
2003-07-02 10:19:34 51°7.75 2°31.51 18.431551 4.575122 34.277718 11.893486
2003-07-02 10:20:34 51°7.73 2°31.47 18.432958 4.577971 34.300436 12.129452
2003-07-02 10:21:34 51°7.71 2°31.43 18.432296 4.578393 34.302784 11.488973
2003-07-02 10:22:34 51°7.69 2°31.4 18.433869 4.581769 34.326941 11.65752
2003-07-02 10:23:34 51°7.67 2°31.37 18.434117 4.578182 34.302207 11.387845
2003-07-02 10:24:34 51°7.65 2°31.34 18.435896 4.579342 34.306572 11.590101
2003-07-02 10:25:34 51°7.63 2°31.32 18.437262 4.579026 34.297943 11.994614
2003-07-02 10:26:34 51°7.6 2°31.29 18.43569 4.579659 34.306839 12.23058
2003-07-02 10:27:34 51°7.58 2°31.26 18.444172 4.57776 34.292095 12.500255
2003-07-02 10:28:34 51°7.56 2°31.23 18.409822 4.576177 34.271652 12.365418
2003-07-02 10:29:34 51°7.53 2°31.2 18.399886 4.574278 34.286759 12.567674
2003-07-02 10:30:34 51°7.52 2°31.16 18.398065 4.571957 34.263685 12.466546
2003-07-02 10:31:34 51°7.5 2°31.12 18.391067 4.569847 34.256117 12.736221
2003-07-02 10:32:34 51°7.5 2°31.08 18.390943 4.571008 34.276021 12.871059
2003-07-02 10:33:34 51°7.5 2°31.07 18.394007 4.571219 34.270623 13.039606
2003-07-02 10:34:34 51°7.5 2°31.06 18.408166 4.571535 34.270891 12.80364
2003-07-02 10:35:34 51°7.51 2°31.07 18.414417 4.575228 34.294733 12.466546
2003-07-02 10:36:34 51°7.52 2°31.07 18.424019 4.574806 34.28163 12.635093
2003-07-02 10:37:34 51°7.54 2°31.07 18.432958 4.577127 34.296935 12.163161
2003-07-02 10:38:34 51°7.55 2°31.07 18.437262 4.578815 34.300353 11.994614
2003-07-02 10:39:34 51°7.57 2°31.06 18.437345 4.577127 34.287379 10.208016
2003-07-02 10:40:34 51°7.58 2°31.05 18.436352 4.578709 34.292302 9.97205
2003-07-02 10:41:34 51°7.6 2°31.05 18.427868 4.577865 34.293578 9.163024
2003-07-02 10:42:34 51°7.61 2°31.05 18.419301 4.576177 34.287769 9.129315
2003-07-02 10:43:34 51°7.63 2°31.05 18.407255 4.577233 34.300211 9.163024
2003-07-02 10:44:34 51°7.64 2°31.05 18.391688 4.579237 34.327208 9.095606
2003-07-02 10:45:34 51°7.65 2°31.05 18.368911 4.572063 34.288472 9.061896
2003-07-02 10:46:34 51°7.66 2°31.06 18.345049 4.573013 34.31141 9.230443
2003-07-02 10:47:34 51°7.67 2°31.07 18.315168 4.570692 34.308063 9.061896
2003-07-02 10:48:34 51°7.68 2°31.09 18.300036 4.566894 34.306674 8.85964
2003-07-02 10:49:34 51°7.69 2°31.1 18.279759 4.569216 34.335811 8.556255
2003-07-02 10:50:34 51°7.7 2°31.13 18.258853 4.568688 34.340376 8.185452
2003-07-02 10:51:34 51°7.72 2°31.15 18.250431 4.564785 34.327317 7.544973
2003-07-02 10:52:34 51°7.73 2°31.18 18.240804 4.56067 34.298057 7.477554
2003-07-02 10:53:34 51°7.71 2°31.23 18.258563 4.56373 34.331046 7.915777
2003-07-02 10:54:34 51°7.65 2°31.24 18.343847 4.566367 34.325033 8.252871
2003-07-02 10:55:34 51°7.58 2°31.24 18.40709 4.573224 34.305402 9.061896
2003-07-02 10:56:34 51°7.49 2°31.21 18.421991 4.575017 34.287583 10.915913
2003-07-02 10:57:34 51°7.36 2°31.19 18.36626 4.575967 34.297946 12.972187
2003-07-02 10:58:34 51°7.24 2°31.15 18.334606 4.569109 34.279794 12.365418
2003-07-02 10:59:34 51°7.11 2°31.1 18.330628 4.569848 34.302163 12.297999
2003-07-02 11:00:34 51°6.99 2°31.03 18.327851 4.565733 34.271753 12.871059
2003-07-02 11:01:34 51°6.87 2°30.93 18.31981 4.568266 34.298437 12.904768
2003-07-02 11:02:34 51°6.75 2°30.91 18.307996 4.566261 34.293555 12.163161
2003-07-02 11:03:34 51°6.63 2°30.93 18.277934 4.564995 34.297886 12.500255
2003-07-02 11:04:34 51°6.5 2°30.96 18.253874 4.564046 34.306687 13.039606
2003-07-02 11:05:34 51°6.39 2°31.07 18.236239 4.562464 34.311967 12.533965
2003-07-02 11:06:34 51°6.38 2°31.26 18.237733 4.55951 34.303892 11.017042
2003-07-02 11:07:34 51°6.41 2°31.46 18.24707 4.558455 34.287194 11.253007
2003-07-02 11:08:34 51°6.47 2°31.65 18.241178 4.560143 34.297815 10.309144
2003-07-02 11:09:34 51°6.51 2°31.85 18.229931 4.559721 34.300864 11.050751
2003-07-02 11:10:34 51°6.54 2°32.07 18.217396 4.556134 34.276639 10.073178
2003-07-02 11:11:34 51°6.58 2°32.26 18.209965 4.556239 34.287136 8.28658
2003-07-02 11:12:34 51°6.61 2°32.42 18.203572 4.557084 34.30507 9.331571
2003-07-02 11:13:34 51°6.67 2°32.57 18.225905 4.552758 34.275803 7.106751
2003-07-02 11:14:34 51°6.75 2°32.68 18.169019 4.555079 34.301993 6.499982
2003-07-02 11:15:34 51°6.81 2°32.73 18.156639 4.550965 34.290135 6.162888
2003-07-02 11:16:34 51°6.85 2°32.72 18.163328 4.54991 34.287247 9.061896
2003-07-02 11:17:34 51°6.86 2°32.72 18.169725 4.550754 34.284142 10.342853
2003-07-02 11:18:34 51°6.86 2°32.72 18.171221 4.55413 34.30782 11.623811
2003-07-02 11:19:34 51°6.85 2°32.73 18.176247 4.552653 34.302577 11.69123
2003-07-02 11:20:34 51°6.85 2°32.74 18.188499 4.555396 34.316698 11.488973
2003-07-02 11:21:34 51°6.84 2°32.74 18.179487 4.554024 34.293695 11.590101
2003-07-02 11:22:34 51°6.84 2°32.75 18.171055 4.553602 34.302165 11.522683
2003-07-02 11:23:34 51°6.83 2°32.75 18.170307 4.553075 34.297713 11.69123
2003-07-02 11:24:34 51°6.83 2°32.76 18.166776 4.551281 34.290399 11.354136
2003-07-02 11:25:34 51°6.81 2°32.76 18.17633 4.552548 34.300483 11.286717
2003-07-02 11:26:34 51°6.8 2°32.76 18.169725 4.553075 34.298315 11.455264
2003-07-02 11:27:34 51°6.78 2°32.75 18.166942 4.554025 34.314154 11.421554
2003-07-02 11:28:34 51°6.77 2°32.74 18.171969 4.552758 34.298653 10.713657
2003-07-02 11:29:34 51°6.75 2°32.72 18.166859 4.552442 34.294778 9.97205
2003-07-02 11:30:34 51°6.73 2°32.67 18.163079 4.554658 34.318895 9.803503
2003-07-02 11:31:34 51°6.78 2°32.61 18.168812 4.551492 34.285563 8.556255
2003-07-02 11:32:34 51°6.83 2°32.58 18.20133 4.554341 34.299372 8.455127
2003-07-02 11:33:34 51°6.84 2°32.6 18.214158 4.555712 34.293504 9.601247
2003-07-02 11:34:34 51°6.86 2°32.63 18.212539 4.555712 34.284491 11.219298
2003-07-02 11:35:34 51°6.86 2°32.65 18.216732 4.557295 34.304444 11.050751
2003-07-02 11:36:34 51°6.87 2°32.68 18.226777 4.557294 34.293026 10.039469
2003-07-02 11:37:34 51°6.87 2°32.7 18.224785 4.556345 34.285623 9.4327
2003-07-02 11:38:34 51°6.87 2°32.73 18.239144 4.555184 34.272838 9.129315
2003-07-02 11:39:34 51°6.88 2°32.76 18.225864 4.558349 34.295312 9.230443
2003-07-02 11:40:34 51°6.89 2°32.8 18.228645 4.557611 34.296295 10.208016
2003-07-02 11:41:34 51°6.89 2°32.86 18.230222 4.563097 34.331722 8.960768
2003-07-02 11:42:34 51°6.88 2°32.91 18.224992 4.559826 34.305959 8.657383
2003-07-02 11:43:34 51°6.87 2°32.97 18.218475 4.55856 34.301896 9.601247
2003-07-02 11:44:34 51°6.84 2°33 18.21229 4.558455 34.307016 8.994477
2003-07-02 11:45:34 51°6.82 2°33.02 18.197136 4.554974 34.284873 8.758512
2003-07-02 11:46:34 51°6.8 2°33.03 18.184969 4.556556 34.307837 8.994477
2003-07-02 11:47:34 51°6.78 2°33.02 18.180026 4.553708 34.290424 8.657383
2003-07-02 11:48:34 51°6.77 2°32.9 18.176787 4.555185 34.311307 7.882067
2003-07-02 11:49:34 51°6.74 2°32.7 18.196845 4.555607 34.304038 7.511264
2003-07-02 11:50:34 51°6.72 2°32.47 18.214324 4.557822 34.313102 7.814648
2003-07-02 11:51:34 51°6.7 2°32.24 18.22823 4.558244 34.304636 8.353999
2003-07-02 11:52:34 51°6.67 2°32 18.236779 4.561937 34.324946 7.983195
2003-07-02 11:53:34 51°6.65 2°31.77 18.268933 4.560248 34.295102 8.151742
2003-07-02 11:54:34 51°6.62 2°31.54 18.303809 4.562569 34.293049 7.882067
2003-07-02 11:55:34 51°6.59 2°31.32 18.324245 4.568055 34.303852 5.994341
2003-07-02 11:56:34 51°6.67 2°31.17 18.354122 4.567949 34.297572 5.792084
2003-07-02 11:57:34 51°6.81 2°31.17 18.372514 4.575123 34.32316 6.095469
2003-07-02 11:58:34 51°6.97 2°31.18 18.378975 4.571641 34.292103 7.14046
2003-07-02 11:59:34 51°7.16 2°31.24 18.408621 4.571641 34.284926 6.803366
2003-07-02 12:00:34 51°7.33 2°31.45 18.452074 4.57354 34.268016 6.196597
2003-07-02 12:01:34 51°7.49 2°31.71 18.470895 4.579975 34.299343 5.556118
2003-07-02 12:02:34 51°7.66 2°31.98 18.468083 4.579553 34.280289 4.713383
2003-07-02 12:03:34 51°7.8 2°32.28 18.465063 4.58314 34.307988 4.679674
2003-07-02 12:04:34 51°7.94 2°32.58 18.48752 4.583773 34.30912 4.275161
2003-07-02 12:05:34 51°8.08 2°32.89 18.484377 4.583245 34.292171 5.252734
2003-07-02 12:06:34 51°8.21 2°33.22 18.507778 4.587782 34.325432 5.893212
2003-07-02 12:07:34 51°8.34 2°33.54 18.539477 4.587254 34.303122 5.522409
2003-07-02 12:08:34 51°8.47 2°33.86 18.576819 4.588626 34.289002 5.387571
2003-07-02 12:09:34 51°8.6 2°34.18 18.591024 4.59274 34.298456 5.421281
2003-07-02 12:10:34 51°8.7 2°34.53 18.595854 4.594428 34.297119 5.623537
2003-07-02 12:11:34 51°8.79 2°34.89 18.610633 4.593373 34.285917 5.623537
2003-07-02 12:12:34 51°8.87 2°35.25 18.637457 4.595377 34.284265 5.589828
2003-07-02 12:13:34 51°8.96 2°35.61 18.651196 4.597276 34.286484 5.219024
2003-07-02 12:14:34 51°9.05 2°35.97 18.678541 4.599175 34.283957 5.185315
2003-07-02 12:15:34 51°9.13 2°36.34 18.691612 4.603395 34.305561 5.151606
2003-07-02 12:16:34 51°9.22 2°36.69 18.742346 4.605083 34.303643 4.409999
2003-07-02 12:17:34 51°9.31 2°37.05 18.725699 4.608564 34.297147 4.477418
2003-07-02 12:18:34 51°9.4 2°37.41 18.729696 4.608037 34.301036 4.207742
2003-07-02 12:19:34 51°9.48 2°37.77 18.754869 4.609303 34.299754 4.072905
2003-07-02 12:20:34 51°9.57 2°38.13 18.763807 4.611519 34.308756 4.780802
2003-07-02 12:21:34 51°9.66 2°38.5 18.784685 4.614051 34.318619 4.747093
2003-07-02 12:22:34 51°9.75 2°38.86 18.803581 4.614472 34.306753 4.308871
2003-07-02 12:23:34 51°9.85 2°39.22 18.819385 4.617004 34.309518 3.904358
2003-07-02 12:24:34 51°9.95 2°39.57 18.805804 4.619431 34.32086 5.421281
2003-07-02 12:25:34 51°10.06 2°39.92 18.810619 4.618376 34.316803 5.589828
2003-07-02 12:26:34 51°10.16 2°40.28 18.807038 4.621858 34.34639 5.286443
2003-07-02 12:27:34 51°10.27 2°40.64 18.79967 4.61922 34.329745 5.185315
2003-07-02 12:28:34 51°10.37 2°40.99 18.790037 4.621647 34.358245 4.275161
2003-07-02 12:29:34 51°10.47 2°41.35 18.776779 4.621436 34.358855 4.477418
2003-07-02 12:30:34 51°10.58 2°41.71 18.787238 4.619643 34.355161 4.376289
2003-07-02 12:31:34 51°10.68 2°42.06 18.811525 4.621331 34.362714 5.185315
2003-07-02 12:32:34 51°10.79 2°42.42 18.776079 4.619326 34.354892 4.780802
2003-07-02 12:33:34 51°10.89 2°42.78 18.752974 4.619748 34.366113 4.91564
2003-07-02 12:34:34 51°11 2°43.13 18.733075 4.617638 34.368084 4.645965
2003-07-02 12:35:34 51°11.1 2°43.49 18.701052 4.61595 34.367053 4.477418
2003-07-02 12:36:34 51°11.19 2°43.86 18.680149 4.614368 34.374029 4.679674
2003-07-02 12:37:34 51°11.28 2°44.23 18.669881 4.608776 34.351688 4.780802
2003-07-02 12:38:34 51°11.37 2°44.6 18.668891 4.611309 34.376407 4.005486
2003-07-02 12:39:34 51°11.46 2°44.97 18.74733 4.612258 34.37245 3.23017
2003-07-02 12:40:34 51°11.55 2°45.34 18.872741 4.612784 34.298601 3.432426
2003-07-02 12:41:34 51°11.64 2°45.7 19.159713 4.611833 34.191684 3.702101
2003-07-02 12:42:34 51°11.73 2°46.07 19.091288 4.611938 34.167321 3.702101
2003-07-02 12:43:34 51°11.82 2°46.43 19.151235 4.610882 34.128103 3.76952
2003-07-02 12:44:34 51°11.91 2°46.8 19.247175 4.61067 34.079613 3.668392
2003-07-02 12:45:34 51°12 2°47.17 19.233635 3.725182 26.842512 3.263879
2003-07-02 12:46:34 51°12.1 2°47.53 19.18862 3.944001 28.585056 2.65711
2003-07-02 12:47:34 51°12.21 2°47.89 19.246602 3.774821 27.219398 2.421144
2003-07-02 12:48:34 51°12.32 2°48.24 19.330115 4.418236 32.430769 2.522272
2003-07-02 12:49:34 51°12.43 2°48.59 19.283772 4.192839 30.57869 3.263879
2003-07-02 12:50:34 51°12.54 2°48.94 19.45057 3.162676 22.357562 2.758238
2003-07-02 12:51:34 51°12.66 2°49.29 19.287125 3.318732 23.565784 3.331298
2003-07-02 12:52:34 51°12.78 2°49.63 19.346496 3.363072 23.908305 3.263879
2003-07-02 12:53:34 51°12.9 2°49.97 19.417773 3.580079 25.623432 2.960494
2003-07-02 12:54:34 51°13.03 2°50.31 19.358748 3.500114 24.985315 3.162751
2003-07-02 12:55:34 51°13.16 2°50.64 19.582379 3.145093 22.177661 3.365007
2003-07-02 12:56:34 51°13.3 2°50.97 19.44694 1.744726 11.623503 3.162751
2003-07-02 12:57:34 51°13.43 2°51.31 19.441189 3.749629 26.886683 3.365007
2003-07-02 12:58:34 51°13.56 2°51.64 19.493583 4.399773 32.108545 2.893076
2003-07-02 12:59:34 51°13.7 2°51.98 19.543453 2.474482 16.989368 3.432426
2003-07-02 13:00:34 51°13.83 2°52.31 19.58014 3.976679 28.662803 2.926785
2003-07-02 13:01:34 51°13.96 2°52.65 19.594142 4.419287 32.237712 3.331298
2003-07-02 13:02:34 51°14.08 2°52.98 19.49289 3.327471 23.515281 3.567264
2003-07-02 13:03:34 51°14.19 2°53.32 19.363811 2.705624 18.721786 3.702101
2003-07-02 13:04:34 51°14.28 2°53.66 19.591863 3.940835 28.360751 3.600973
2003-07-02 13:05:34 51°14.37 2°53.99 19.572853 2.914995 20.320178 3.027913
2003-07-02 13:06:34 51°14.44 2°54.27 19.525204 4.371291 31.823008 3.297589
2003-07-02 13:07:34 51°14.46 2°54.49 19.59573 3.59704 25.608651 3.19646
2003-07-02 13:08:34 51°14.43 2°54.71 19.638613 3.061082 21.42378 3.870648